sensor_id;sensor_type;location;lat;lon;timestamp;pressure;altitude;pressure_sealevel;temperature;humidity
43621;BME280;29213;50.770;7.298;2023-03-16T00:00:51;101246.03;;;-0.27;57.65
43621;BME280;29213;50.770;7.298;2023-03-16T00:03:17;101294.16;;;0.06;57.02
43621;BME280;29213;50.770;7.298;2023-03-16T00:05:49;101317.03;;;0.20;57.15
43621;BME280;29213;50.770;7.298;2023-03-16T00:08:15;101315.34;;;0.19;57.05
43621;BME280;29213;50.770;7.298;2023-03-16T00:10:41;101295.56;;;-0.05;57.42
43621;BME280;29213;50.770;7.298;2023-03-16T00:13:19;101308.88;;;0.08;57.08
43621;BME280;29213;50.770;7.298;2023-03-16T00:15:56;101310.59;;;0.09;57.11
43621;BME280;29213;50.770;7.298;2023-03-16T00:18:23;101306.25;;;0.08;56.93
43621;BME280;29213;50.770;7.298;2023-03-16T00:20:56;101303.63;;;0.08;56.91
43621;BME280;29213;50.770;7.298;2023-03-16T00:23:23;101265.28;;;-0.10;56.69
43621;BME280;29213;50.770;7.298;2023-03-16T00:25:56;101294.34;;;0.03;57.05
43621;BME280;29213;50.770;7.298;2023-03-16T00:28:23;101261.44;;;-0.21;57.37
43621;BME280;29213;50.770;7.298;2023-03-16T00:30:48;101299.81;;;-0.02;57.63
43621;BME280;29213;50.770;7.298;2023-03-16T00:33:14;101269.34;;;-0.22;57.76
43621;BME280;29213;50.770;7.298;2023-03-16T00:35:40;101295.78;;;-0.09;57.17
43621;BME280;29213;50.770;7.298;2023-03-16T00:38:18;101287.31;;;-0.15;57.15
43621;BME280;29213;50.770;7.298;2023-03-16T00:40:45;101290.03;;;-0.16;56.92
43621;BME280;29213;50.770;7.298;2023-03-16T00:43:12;101243.78;;;-0.53;57.12
43621;BME280;29213;50.770;7.298;2023-03-16T00:45:37;101276.06;;;-0.34;57.54
43621;BME280;29213;50.770;7.298;2023-03-16T00:48:03;101278.44;;;-0.30;57.38
43621;BME280;29213;50.770;7.298;2023-03-16T00:50:28;101178.06;;;-1.01;57.58
43621;BME280;29213;50.770;7.298;2023-03-16T00:52:54;101221.28;;;-0.74;57.77
43621;BME280;29213;50.770;7.298;2023-03-16T00:55:20;101227.31;;;-0.72;57.87
43621;BME280;29213;50.770;7.298;2023-03-16T00:57:45;101279.06;;;-0.42;58.62
43621;BME280;29213;50.770;7.298;2023-03-16T01:00:11;101240.59;;;-0.59;58.34
43621;BME280;29213;50.770;7.298;2023-03-16T01:02:39;101230.63;;;-0.51;57.81
43621;BME280;29213;50.770;7.298;2023-03-16T01:05:05;101215.38;;;-0.60;57.82
43621;BME280;29213;50.770;7.298;2023-03-16T01:07:31;101224.59;;;-0.53;58.17
43621;BME280;29213;50.770;7.298;2023-03-16T01:09:56;101254.19;;;-0.33;57.73
43621;BME280;29213;50.770;7.298;2023-03-16T01:12:22;101270.28;;;-0.23;57.90
43621;BME280;29213;50.770;7.298;2023-03-16T01:14:48;101249.19;;;-0.38;57.68
43621;BME280;29213;50.770;7.298;2023-03-16T01:17:15;101277.75;;;-0.16;57.33
43621;BME280;29213;50.770;7.298;2023-03-16T01:19:42;101273.69;;;-0.21;57.13
43621;BME280;29213;50.770;7.298;2023-03-16T01:22:09;101250.50;;;-0.29;57.12
43621;BME280;29213;50.770;7.298;2023-03-16T01:24:35;101251.19;;;-0.26;57.51
43621;BME280;29213;50.770;7.298;2023-03-16T01:27:02;101286.09;;;-0.07;57.23
43621;BME280;29213;50.770;7.298;2023-03-16T01:29:29;101290.97;;;0.00;56.98
43621;BME280;29213;50.770;7.298;2023-03-16T01:31:54;101273.16;;;-0.10;57.09
43621;BME280;29213;50.770;7.298;2023-03-16T01:34:20;101278.38;;;0.07;57.13
43621;BME280;29213;50.770;7.298;2023-03-16T01:36:47;101272.38;;;0.05;56.88
43621;BME280;29213;50.770;7.298;2023-03-16T01:39:13;101237.03;;;-0.21;57.05
43621;BME280;29213;50.770;7.298;2023-03-16T01:41:40;101256.28;;;-0.05;56.81
43621;BME280;29213;50.770;7.298;2023-03-16T01:44:09;101229.19;;;-0.21;57.09
43621;BME280;29213;50.770;7.298;2023-03-16T01:46:37;101183.97;;;-0.43;57.00
43621;BME280;29213;50.770;7.298;2023-03-16T01:49:22;101239.78;;;-0.07;56.77
43621;BME280;29213;50.770;7.298;2023-03-16T01:52:13;101234.78;;;-0.12;56.94
43621;BME280;29213;50.770;7.298;2023-03-16T01:54:49;101206.31;;;-0.18;57.19
43621;BME280;29213;50.770;7.298;2023-03-16T01:57:25;101208.44;;;-0.08;56.85
43621;BME280;29213;50.770;7.298;2023-03-16T02:02:35;101224.97;;;0.10;56.84
43621;BME280;29213;50.770;7.298;2023-03-16T02:07:40;101114.56;;;-0.50;56.32
43621;BME280;29213;50.770;7.298;2023-03-16T02:10:08;101198.72;;;0.11;56.43
43621;BME280;29213;50.770;7.298;2023-03-16T02:12:35;101153.22;;;-0.04;56.11
43621;BME280;29213;50.770;7.298;2023-03-16T02:15:00;101154.25;;;0.10;55.93
43621;BME280;29213;50.770;7.298;2023-03-16T02:17:28;101188.63;;;0.37;55.62
43621;BME280;29213;50.770;7.298;2023-03-16T02:22:47;101182.06;;;0.46;55.47
43621;BME280;29213;50.770;7.298;2023-03-16T02:25:14;101140.34;;;0.25;55.54
43621;BME280;29213;50.770;7.298;2023-03-16T02:27:56;101181.72;;;0.52;55.22
43621;BME280;29213;50.770;7.298;2023-03-16T02:30:25;101140.69;;;0.35;54.95
43621;BME280;29213;50.770;7.298;2023-03-16T02:32:51;101176.13;;;0.59;54.92
43621;BME280;29213;50.770;7.298;2023-03-16T02:35:17;101165.56;;;0.60;54.94
43621;BME280;29213;50.770;7.298;2023-03-16T02:37:43;101169.03;;;0.61;54.76
43621;BME280;29213;50.770;7.298;2023-03-16T02:40:25;101167.19;;;0.63;54.66
43621;BME280;29213;50.770;7.298;2023-03-16T02:43:00;101169.81;;;0.63;54.74
43621;BME280;29213;50.770;7.298;2023-03-16T02:48:11;101128.59;;;0.33;54.49
43621;BME280;29213;50.770;7.298;2023-03-16T02:50:51;101163.38;;;0.52;54.69
43621;BME280;29213;50.770;7.298;2023-03-16T02:53:17;101126.84;;;0.33;55.04
43621;BME280;29213;50.770;7.298;2023-03-16T02:55:42;101167.94;;;0.49;54.26
43621;BME280;29213;50.770;7.298;2023-03-16T02:58:09;101143.16;;;0.38;54.65
43621;BME280;29213;50.770;7.298;2023-03-16T03:00:36;101162.50;;;0.52;54.74
43621;BME280;29213;50.770;7.298;2023-03-16T03:03:03;101113.06;;;0.30;54.79
43621;BME280;29213;50.770;7.298;2023-03-16T03:05:28;101122.19;;;0.38;54.28
43621;BME280;29213;50.770;7.298;2023-03-16T03:07:53;101147.88;;;0.48;54.24
43621;BME280;29213;50.770;7.298;2023-03-16T03:10:19;101118.97;;;0.33;53.86
43621;BME280;29213;50.770;7.298;2023-03-16T03:12:44;101131.13;;;0.34;54.03
43621;BME280;29213;50.770;7.298;2023-03-16T03:15:14;101155.16;;;0.43;54.42
43621;BME280;29213;50.770;7.298;2023-03-16T03:17:40;101106.09;;;0.12;54.10
43621;BME280;29213;50.770;7.298;2023-03-16T03:20:08;101147.47;;;0.39;54.11
43621;BME280;29213;50.770;7.298;2023-03-16T03:22:40;101096.88;;;0.05;54.27
43621;BME280;29213;50.770;7.298;2023-03-16T03:25:06;101110.72;;;0.07;54.42
43621;BME280;29213;50.770;7.298;2023-03-16T03:27:33;101139.59;;;0.23;54.49
43621;BME280;29213;50.770;7.298;2023-03-16T03:29:58;101115.50;;;0.17;54.30
43621;BME280;29213;50.770;7.298;2023-03-16T03:32:24;101079.22;;;-0.07;54.16
43621;BME280;29213;50.770;7.298;2023-03-16T03:34:49;101131.03;;;0.20;54.06
43621;BME280;29213;50.770;7.298;2023-03-16T03:37:15;101052.31;;;-0.27;54.25
43621;BME280;29213;50.770;7.298;2023-03-16T03:39:40;101129.19;;;0.22;54.34
43621;BME280;29213;50.770;7.298;2023-03-16T03:42:06;101102.00;;;-0.09;54.04
43621;BME280;29213;50.770;7.298;2023-03-16T03:44:33;101103.19;;;-0.15;54.64
43621;BME280;29213;50.770;7.298;2023-03-16T03:47:01;101140.63;;;0.03;54.65
43621;BME280;29213;50.770;7.298;2023-03-16T03:49:27;101092.34;;;-0.25;54.66
43621;BME280;29213;50.770;7.298;2023-03-16T03:51:53;101094.94;;;-0.25;54.84
43621;BME280;29213;50.770;7.298;2023-03-16T03:54:18;101131.19;;;0.00;54.79
43621;BME280;29213;50.770;7.298;2023-03-16T03:56:44;101132.03;;;0.01;54.89
43621;BME280;29213;50.770;7.298;2023-03-16T03:59:09;101090.44;;;-0.21;54.88
43621;BME280;29213;50.770;7.298;2023-03-16T04:01:35;101130.75;;;0.08;54.85
43621;BME280;29213;50.770;7.298;2023-03-16T04:04:00;101129.53;;;0.16;54.78
43621;BME280;29213;50.770;7.298;2023-03-16T04:06:26;101063.31;;;-0.20;54.54
43621;BME280;29213;50.770;7.298;2023-03-16T04:08:51;101113.13;;;0.12;54.13
43621;BME280;29213;50.770;7.298;2023-03-16T04:11:19;101087.22;;;-0.10;54.07
43621;BME280;29213;50.770;7.298;2023-03-16T04:13:45;101075.88;;;-0.27;54.60
43621;BME280;29213;50.770;7.298;2023-03-16T04:16:11;101065.06;;;-0.21;54.69
43621;BME280;29213;50.770;7.298;2023-03-16T04:18:40;101089.19;;;0.02;54.40
43621;BME280;29213;50.770;7.298;2023-03-16T04:21:09;101125.97;;;0.33;54.26
43621;BME280;29213;50.770;7.298;2023-03-16T04:23:37;101091.56;;;0.23;54.13
43621;BME280;29213;50.770;7.298;2023-03-16T04:26:02;101118.22;;;0.47;54.17
43621;BME280;29213;50.770;7.298;2023-03-16T04:28:30;101051.50;;;0.05;53.91
43621;BME280;29213;50.770;7.298;2023-03-16T04:31:05;101120.75;;;0.49;53.76
43621;BME280;29213;50.770;7.298;2023-03-16T04:33:32;101121.34;;;0.54;54.01
43621;BME280;29213;50.770;7.298;2023-03-16T04:35:58;101054.97;;;0.21;53.85
43621;BME280;29213;50.770;7.298;2023-03-16T04:38:23;101072.56;;;0.35;53.73
43621;BME280;29213;50.770;7.298;2023-03-16T04:40:49;101071.63;;;0.36;54.07
43621;BME280;29213;50.770;7.298;2023-03-16T04:43:14;101075.75;;;0.40;53.68
43621;BME280;29213;50.770;7.298;2023-03-16T04:45:40;101084.22;;;0.46;54.01
43621;BME280;29213;50.770;7.298;2023-03-16T04:48:06;101042.03;;;0.34;53.78
43621;BME280;29213;50.770;7.298;2023-03-16T04:50:31;101052.03;;;0.44;54.16
43621;BME280;29213;50.770;7.298;2023-03-16T04:52:56;101062.81;;;0.53;53.62
43621;BME280;29213;50.770;7.298;2023-03-16T04:55:22;101053.88;;;0.58;53.83
43621;BME280;29213;50.770;7.298;2023-03-16T04:57:48;101068.97;;;0.68;53.92
43621;BME280;29213;50.770;7.298;2023-03-16T05:00:13;101052.84;;;0.60;54.13
43621;BME280;29213;50.770;7.298;2023-03-16T05:02:46;101063.50;;;0.73;53.72
43621;BME280;29213;50.770;7.298;2023-03-16T05:05:12;101021.91;;;0.51;53.90
43621;BME280;29213;50.770;7.298;2023-03-16T05:07:38;101076.25;;;0.79;53.75
43621;BME280;29213;50.770;7.298;2023-03-16T05:10:07;101042.53;;;0.57;54.08
43621;BME280;29213;50.770;7.298;2023-03-16T05:12:32;101058.47;;;0.68;54.02
43621;BME280;29213;50.770;7.298;2023-03-16T05:14:58;101069.16;;;0.65;54.36
43621;BME280;29213;50.770;7.298;2023-03-16T05:17:23;101042.22;;;0.47;54.23
43621;BME280;29213;50.770;7.298;2023-03-16T05:19:49;101067.56;;;0.63;54.47
43621;BME280;29213;50.770;7.298;2023-03-16T05:22:15;101051.25;;;0.58;54.61
43621;BME280;29213;50.770;7.298;2023-03-16T05:24:40;101029.19;;;0.46;54.05
43621;BME280;29213;50.770;7.298;2023-03-16T05:27:05;101039.22;;;0.53;54.14
43621;BME280;29213;50.770;7.298;2023-03-16T05:29:31;101065.66;;;0.81;54.27
43621;BME280;29213;50.770;7.298;2023-03-16T05:31:57;101067.34;;;0.82;54.50
43621;BME280;29213;50.770;7.298;2023-03-16T05:34:23;101009.75;;;0.50;54.06
43621;BME280;29213;50.770;7.298;2023-03-16T05:36:49;101065.84;;;0.78;54.15
43621;BME280;29213;50.770;7.298;2023-03-16T05:39:14;101023.50;;;0.53;54.05
43621;BME280;29213;50.770;7.298;2023-03-16T05:41:39;101070.66;;;0.86;54.39
43621;BME280;29213;50.770;7.298;2023-03-16T05:44:05;101073.19;;;0.87;53.93
43621;BME280;29213;50.770;7.298;2023-03-16T05:46:32;101078.16;;;0.92;54.25
43621;BME280;29213;50.770;7.298;2023-03-16T05:48:57;101056.81;;;0.67;54.06
43621;BME280;29213;50.770;7.298;2023-03-16T05:51:23;101053.00;;;0.57;54.55
43621;BME280;29213;50.770;7.298;2023-03-16T05:53:51;101030.97;;;0.45;54.63
43621;BME280;29213;50.770;7.298;2023-03-16T05:56:16;101026.16;;;0.37;54.59
43621;BME280;29213;50.770;7.298;2023-03-16T05:58:41;101040.53;;;0.46;54.95
43621;BME280;29213;50.770;7.298;2023-03-16T06:01:07;101031.06;;;0.27;54.85
43621;BME280;29213;50.770;7.298;2023-03-16T06:03:33;101034.69;;;0.25;55.43
43621;BME280;29213;50.770;7.298;2023-03-16T06:05:58;101054.41;;;0.32;55.55
43621;BME280;29213;50.770;7.298;2023-03-16T06:08:24;101017.38;;;0.06;55.66
43621;BME280;29213;50.770;7.298;2023-03-16T06:10:49;101002.06;;;-0.02;55.89
43621;BME280;29213;50.770;7.298;2023-03-16T06:13:14;101088.97;;;0.55;55.66
43621;BME280;29213;50.770;7.298;2023-03-16T06:15:40;101029.72;;;0.20;55.70
43621;BME280;29213;50.770;7.298;2023-03-16T06:18:06;101065.13;;;0.44;55.38
43621;BME280;29213;50.770;7.298;2023-03-16T06:20:31;101044.16;;;0.27;55.46
43621;BME280;29213;50.770;7.298;2023-03-16T06:22:57;101041.19;;;0.34;55.38
43621;BME280;29213;50.770;7.298;2023-03-16T06:25:22;101037.97;;;0.45;55.33
43621;BME280;29213;50.770;7.298;2023-03-16T06:27:48;101085.72;;;0.82;55.19
43621;BME280;29213;50.770;7.298;2023-03-16T06:30:14;101052.84;;;0.60;55.43
43621;BME280;29213;50.770;7.298;2023-03-16T06:32:41;101086.38;;;0.86;55.54
43621;BME280;29213;50.770;7.298;2023-03-16T06:35:07;101087.63;;;0.94;55.32
43621;BME280;29213;50.770;7.298;2023-03-16T06:37:33;101039.78;;;0.75;55.11
43621;BME280;29213;50.770;7.298;2023-03-16T06:39:59;101087.94;;;1.04;54.81
43621;BME280;29213;50.770;7.298;2023-03-16T06:42:24;101021.41;;;0.75;54.82
43621;BME280;29213;50.770;7.298;2023-03-16T06:44:50;101075.88;;;1.16;54.75
43621;BME280;29213;50.770;7.298;2023-03-16T06:47:17;101049.03;;;0.97;54.89
43621;BME280;29213;50.770;7.298;2023-03-16T06:49:42;101070.06;;;1.11;54.56
43621;BME280;29213;50.770;7.298;2023-03-16T06:52:08;101095.97;;;1.32;54.52
43621;BME280;29213;50.770;7.298;2023-03-16T06:54:35;101090.25;;;1.40;54.65
43621;BME280;29213;50.770;7.298;2023-03-16T06:57:02;101038.81;;;1.06;54.48
43621;BME280;29213;50.770;7.298;2023-03-16T06:59:28;101088.56;;;1.39;55.05
43621;BME280;29213;50.770;7.298;2023-03-16T07:01:54;101088.44;;;1.26;55.00
43621;BME280;29213;50.770;7.298;2023-03-16T07:04:19;101092.31;;;1.34;55.14
43621;BME280;29213;50.770;7.298;2023-03-16T07:06:45;101037.59;;;0.98;55.12
43621;BME280;29213;50.770;7.298;2023-03-16T07:09:11;101102.91;;;1.33;55.00
43621;BME280;29213;50.770;7.298;2023-03-16T07:11:37;101102.63;;;1.38;55.38
43621;BME280;29213;50.770;7.298;2023-03-16T07:14:03;101115.41;;;1.44;55.08
43621;BME280;29213;50.770;7.298;2023-03-16T07:16:28;101097.75;;;1.31;55.26
43621;BME280;29213;50.770;7.298;2023-03-16T07:18:54;101112.31;;;1.52;55.06
43621;BME280;29213;50.770;7.298;2023-03-16T07:21:20;101030.66;;;0.97;55.29
43621;BME280;29213;50.770;7.298;2023-03-16T07:23:46;101107.22;;;1.34;55.27
43621;BME280;29213;50.770;7.298;2023-03-16T07:26:12;101116.66;;;1.67;64.44
43621;BME280;29213;50.770;7.298;2023-03-16T07:28:41;101099.59;;;2.18;61.09
43621;BME280;29213;50.770;7.298;2023-03-16T07:31:06;101101.09;;;2.22;55.10
43621;BME280;29213;50.770;7.298;2023-03-16T07:33:34;101110.56;;;1.96;55.10
43621;BME280;29213;50.770;7.298;2023-03-16T07:36:00;101114.59;;;2.01;54.99
43621;BME280;29213;50.770;7.298;2023-03-16T07:38:29;101098.09;;;1.85;54.65
43621;BME280;29213;50.770;7.298;2023-03-16T07:40:54;101095.94;;;1.92;55.35
43621;BME280;29213;50.770;7.298;2023-03-16T07:43:20;101086.16;;;1.94;54.51
43621;BME280;29213;50.770;7.298;2023-03-16T07:45:49;101109.47;;;2.14;55.02
43621;BME280;29213;50.770;7.298;2023-03-16T07:48:15;101091.91;;;2.00;54.75
43621;BME280;29213;50.770;7.298;2023-03-16T07:50:41;101109.03;;;2.35;55.79
43621;BME280;29213;50.770;7.298;2023-03-16T07:53:07;101091.84;;;2.44;55.07
43621;BME280;29213;50.770;7.298;2023-03-16T07:55:32;101104.25;;;2.42;54.18
43621;BME280;29213;50.770;7.298;2023-03-16T07:58:00;101061.56;;;2.24;53.97
43621;BME280;29213;50.770;7.298;2023-03-16T08:00:26;101024.63;;;1.98;55.88
43621;BME280;29213;50.770;7.298;2023-03-16T08:02:52;101050.47;;;2.61;55.95
43621;BME280;29213;50.770;7.298;2023-03-16T08:05:18;100988.22;;;2.34;53.25
43621;BME280;29213;50.770;7.298;2023-03-16T08:07:43;101053.03;;;2.75;54.77
43621;BME280;29213;50.770;7.298;2023-03-16T08:10:10;101076.16;;;3.11;53.85
43621;BME280;29213;50.770;7.298;2023-03-16T08:12:35;101091.69;;;3.28;52.86
43621;BME280;29213;50.770;7.298;2023-03-16T08:15:01;101037.44;;;3.13;53.03
43621;BME280;29213;50.770;7.298;2023-03-16T08:17:26;101019.19;;;3.09;52.69
43621;BME280;29213;50.770;7.298;2023-03-16T08:19:52;101052.41;;;3.38;53.30
43621;BME280;29213;50.770;7.298;2023-03-16T08:22:17;101084.44;;;3.45;52.48
43621;BME280;29213;50.770;7.298;2023-03-16T08:24:43;101067.03;;;3.29;53.20
43621;BME280;29213;50.770;7.298;2023-03-16T08:27:08;101023.94;;;3.04;52.77
43621;BME280;29213;50.770;7.298;2023-03-16T08:29:34;101058.81;;;3.21;53.16
43621;BME280;29213;50.770;7.298;2023-03-16T08:31:59;101071.69;;;3.26;52.92
43621;BME280;29213;50.770;7.298;2023-03-16T08:34:26;101027.09;;;3.09;53.23
43621;BME280;29213;50.770;7.298;2023-03-16T08:36:52;101050.50;;;3.40;53.82
43621;BME280;29213;50.770;7.298;2023-03-16T08:39:18;101056.81;;;3.51;53.61
43621;BME280;29213;50.770;7.298;2023-03-16T08:41:44;101050.06;;;3.59;53.43
43621;BME280;29213;50.770;7.298;2023-03-16T08:44:11;101051.66;;;3.49;52.59
43621;BME280;29213;50.770;7.298;2023-03-16T08:46:37;101077.75;;;3.78;52.90
43621;BME280;29213;50.770;7.298;2023-03-16T08:49:04;101084.84;;;3.78;53.13
43621;BME280;29213;50.770;7.298;2023-03-16T08:51:31;101043.97;;;3.59;52.75
43621;BME280;29213;50.770;7.298;2023-03-16T08:53:57;101019.22;;;3.48;52.53
43621;BME280;29213;50.770;7.298;2023-03-16T08:56:23;101059.31;;;3.78;52.57
43621;BME280;29213;50.770;7.298;2023-03-16T08:58:48;100975.41;;;3.47;52.14
43621;BME280;29213;50.770;7.298;2023-03-16T09:01:15;101057.78;;;4.13;51.83
43621;BME280;29213;50.770;7.298;2023-03-16T09:03:42;101045.66;;;4.10;51.38
43621;BME280;29213;50.770;7.298;2023-03-16T09:06:11;101036.16;;;4.08;51.50
43621;BME280;29213;50.770;7.298;2023-03-16T09:08:38;101050.63;;;4.15;50.50
43621;BME280;29213;50.770;7.298;2023-03-16T09:11:06;101054.19;;;4.14;51.55
43621;BME280;29213;50.770;7.298;2023-03-16T09:13:33;101023.44;;;4.01;50.96
43621;BME280;29213;50.770;7.298;2023-03-16T09:15:59;101050.22;;;4.08;50.55
43621;BME280;29213;50.770;7.298;2023-03-16T09:18:25;101062.16;;;3.88;50.86
43621;BME280;29213;50.770;7.298;2023-03-16T09:20:53;101071.94;;;3.99;51.28
43621;BME280;29213;50.770;7.298;2023-03-16T09:23:22;101032.34;;;3.74;50.67
43621;BME280;29213;50.770;7.298;2023-03-16T09:25:47;101052.59;;;3.87;50.53
43621;BME280;29213;50.770;7.298;2023-03-16T09:28:12;101039.06;;;3.92;50.52
43621;BME280;29213;50.770;7.298;2023-03-16T09:30:38;101021.97;;;3.97;50.02
43621;BME280;29213;50.770;7.298;2023-03-16T09:33:04;101054.91;;;4.29;50.03
43621;BME280;29213;50.770;7.298;2023-03-16T09:35:30;101041.19;;;4.24;49.07
43621;BME280;29213;50.770;7.298;2023-03-16T09:37:56;101037.78;;;4.35;49.33
43621;BME280;29213;50.770;7.298;2023-03-16T09:40:24;101026.56;;;4.44;49.75
43621;BME280;29213;50.770;7.298;2023-03-16T09:43:09;101062.66;;;4.68;48.67
43621;BME280;29213;50.770;7.298;2023-03-16T09:48:10;101006.59;;;4.53;48.87
43621;BME280;29213;50.770;7.298;2023-03-16T09:50:38;101029.72;;;4.74;47.69
43621;BME280;29213;50.770;7.298;2023-03-16T09:53:15;101060.88;;;5.04;48.30
43621;BME280;29213;50.770;7.298;2023-03-16T09:55:45;101001.06;;;4.92;47.84
43621;BME280;29213;50.770;7.298;2023-03-16T09:58:15;101053.47;;;5.21;47.94
43621;BME280;29213;50.770;7.298;2023-03-16T10:00:57;101048.69;;;5.38;48.00
43621;BME280;29213;50.770;7.298;2023-03-16T10:04:04;101049.53;;;5.38;47.62
43621;BME280;29213;50.770;7.298;2023-03-16T10:06:24;101005.81;;;5.11;46.72
43621;BME280;29213;50.770;7.298;2023-03-16T10:08:57;101005.81;;;5.22;47.19
43621;BME280;29213;50.770;7.298;2023-03-16T10:11:42;101008.09;;;5.16;46.51
43621;BME280;29213;50.770;7.298;2023-03-16T10:14:32;100979.13;;;4.91;46.62
43621;BME280;29213;50.770;7.298;2023-03-16T10:19:44;100911.47;;;4.43;47.29
43621;BME280;29213;50.770;7.298;2023-03-16T10:24:54;101017.19;;;5.00;46.99
43621;BME280;29213;50.770;7.298;2023-03-16T10:27:27;100983.06;;;4.86;47.26
43621;BME280;29213;50.770;7.298;2023-03-16T10:29:54;101025.16;;;5.23;47.45
43621;BME280;29213;50.770;7.298;2023-03-16T10:32:19;100980.34;;;5.10;47.80
43621;BME280;29213;50.770;7.298;2023-03-16T10:34:56;101017.47;;;5.31;47.99
43621;BME280;29213;50.770;7.298;2023-03-16T10:37:23;101023.38;;;5.46;47.29
43621;BME280;29213;50.770;7.298;2023-03-16T10:39:50;100912.19;;;4.92;47.44
43621;BME280;29213;50.770;7.298;2023-03-16T10:42:18;100955.63;;;5.22;47.20
43621;BME280;29213;50.770;7.298;2023-03-16T10:44:45;101005.09;;;5.66;47.17
43621;BME280;29213;50.770;7.298;2023-03-16T10:47:21;101008.22;;;5.71;47.06
43621;BME280;29213;50.770;7.298;2023-03-16T10:49:48;100960.81;;;5.35;47.19
43621;BME280;29213;50.770;7.298;2023-03-16T10:52:23;100978.31;;;5.48;46.69
43621;BME280;29213;50.770;7.298;2023-03-16T10:54:57;101017.00;;;5.72;46.51
43621;BME280;29213;50.770;7.298;2023-03-16T11:00:02;101007.00;;;5.98;46.07
43621;BME280;29213;50.770;7.298;2023-03-16T11:02:33;100987.88;;;6.06;46.24
43621;BME280;29213;50.770;7.298;2023-03-16T11:05:11;100967.47;;;5.97;45.38
43621;BME280;29213;50.770;7.298;2023-03-16T11:07:37;100970.19;;;6.07;45.92
43621;BME280;29213;50.770;7.298;2023-03-16T11:10:12;100977.69;;;6.34;46.54
43621;BME280;29213;50.770;7.298;2023-03-16T11:12:49;100936.84;;;6.15;45.00
43621;BME280;29213;50.770;7.298;2023-03-16T11:15:15;100935.94;;;6.38;45.38
43621;BME280;29213;50.770;7.298;2023-03-16T11:17:48;100934.84;;;6.40;45.37
43621;BME280;29213;50.770;7.298;2023-03-16T11:20:19;100937.38;;;6.42;44.61
43621;BME280;29213;50.770;7.298;2023-03-16T11:22:47;100907.66;;;6.38;44.48
43621;BME280;29213;50.770;7.298;2023-03-16T11:25:30;100952.16;;;6.87;45.22
43621;BME280;29213;50.770;7.298;2023-03-16T11:30:59;100937.28;;;7.17;43.69
43621;BME280;29213;50.770;7.298;2023-03-16T11:33:28;100923.00;;;7.08;42.76
43621;BME280;29213;50.770;7.298;2023-03-16T11:36:19;100946.41;;;7.34;43.37
43621;BME280;29213;50.770;7.298;2023-03-16T11:39:20;100932.28;;;7.75;43.03
43621;BME280;29213;50.770;7.298;2023-03-16T11:44:59;100837.81;;;7.74;40.63
43621;BME280;29213;50.770;7.298;2023-03-16T11:53:30;100887.97;;;8.84;41.60
43621;BME280;29213;50.770;7.298;2023-03-16T11:56:27;100878.38;;;8.63;40.01
43621;BME280;29213;50.770;7.298;2023-03-16T12:01:53;100881.81;;;8.83;40.75
43621;BME280;29213;50.770;7.298;2023-03-16T12:04:34;100849.13;;;8.83;39.29
43621;BME280;29213;50.770;7.298;2023-03-16T12:07:34;100868.69;;;9.20;39.05
43621;BME280;29213;50.770;7.298;2023-03-16T12:10:13;100851.25;;;9.07;38.86
43621;BME280;29213;50.770;7.298;2023-03-16T12:13:12;100847.22;;;9.03;38.11
43621;BME280;29213;50.770;7.298;2023-03-16T12:15:41;100872.75;;;9.14;37.98
43621;BME280;29213;50.770;7.298;2023-03-16T12:18:18;100883.19;;;9.26;38.18
43621;BME280;29213;50.770;7.298;2023-03-16T12:20:54;100841.81;;;9.41;39.47
43621;BME280;29213;50.770;7.298;2023-03-16T12:23:30;100872.50;;;10.00;37.18
43621;BME280;29213;50.770;7.298;2023-03-16T12:25:57;100817.03;;;9.87;36.58
43621;BME280;29213;50.770;7.298;2023-03-16T12:28:26;100861.19;;;10.42;37.46
43621;BME280;29213;50.770;7.298;2023-03-16T12:33:57;100801.38;;;10.28;35.34
43621;BME280;29213;50.770;7.298;2023-03-16T12:40:09;100835.19;;;10.36;35.63
43621;BME280;29213;50.770;7.298;2023-03-16T12:47:38;100746.28;;;9.76;34.75
43621;BME280;29213;50.770;7.298;2023-03-16T12:50:13;100745.34;;;9.85;35.46
43621;BME280;29213;50.770;7.298;2023-03-16T12:52:47;100759.34;;;9.69;35.19
43621;BME280;29213;50.770;7.298;2023-03-16T12:55:22;100823.28;;;10.22;36.34
43621;BME280;29213;50.770;7.298;2023-03-16T12:57:49;100718.13;;;9.29;35.70
43621;BME280;29213;50.770;7.298;2023-03-16T13:00:35;100803.03;;;9.85;36.01
43621;BME280;29213;50.770;7.298;2023-03-16T13:03:03;100773.84;;;9.39;36.30
43621;BME280;29213;50.770;7.298;2023-03-16T13:05:31;100811.25;;;9.73;36.27
43621;BME280;29213;50.770;7.298;2023-03-16T13:08:06;100789.38;;;9.61;35.81
43621;BME280;29213;50.770;7.298;2023-03-16T13:10:33;100790.03;;;9.82;36.52
43621;BME280;29213;50.770;7.298;2023-03-16T13:13:10;100766.19;;;9.54;36.51
43621;BME280;29213;50.770;7.298;2023-03-16T13:15:37;100729.66;;;9.38;36.57
43621;BME280;29213;50.770;7.298;2023-03-16T13:26:38;100752.22;;;9.70;36.61
43621;BME280;29213;50.770;7.298;2023-03-16T13:31:41;100683.53;;;9.65;36.35
43621;BME280;29213;50.770;7.298;2023-03-16T13:34:13;100671.38;;;9.62;36.66
43621;BME280;29213;50.770;7.298;2023-03-16T13:36:40;100696.78;;;10.10;36.30
43621;BME280;29213;50.770;7.298;2023-03-16T13:39:28;100746.94;;;10.66;36.03
43621;BME280;29213;50.770;7.298;2023-03-16T13:41:55;100748.47;;;10.68;35.71
43621;BME280;29213;50.770;7.298;2023-03-16T13:44:22;100651.50;;;10.36;35.91
43621;BME280;29213;50.770;7.298;2023-03-16T13:46:49;100728.75;;;10.88;35.35
43621;BME280;29213;50.770;7.298;2023-03-16T13:49:16;100639.00;;;10.37;35.05
43621;BME280;29213;50.770;7.298;2023-03-16T13:51:42;100718.13;;;10.96;34.43
43621;BME280;29213;50.770;7.298;2023-03-16T13:54:20;100709.13;;;11.05;34.58
43621;BME280;29213;50.770;7.298;2023-03-16T13:56:49;100618.66;;;10.79;33.48
43621;BME280;29213;50.770;7.298;2023-03-16T13:59:15;100711.69;;;11.48;32.99
43621;BME280;29213;50.770;7.298;2023-03-16T14:01:44;100685.81;;;11.49;33.85
43621;BME280;29213;50.770;7.298;2023-03-16T14:04:11;100642.16;;;10.92;33.84